createdAt,value
2019-03-31T00:00:41.351Z,55.08
2019-03-31T00:04:49.917Z,55.39
2019-03-31T00:08:58.231Z,55.81
2019-03-31T00:13:07.501Z,56.03
2019-03-31T00:17:16.011Z,56.78
2019-03-31T00:21:24.525Z,57.10
2019-03-31T00:25:33.031Z,56.77
2019-03-31T00:29:41.588Z,57.41
2019-03-31T00:33:49.921Z,56.82
2019-03-31T00:37:58.617Z,56.56
2019-03-31T00:42:07.480Z,56.68
2019-03-31T00:46:16.181Z,57.20
2019-03-31T00:50:24.944Z,57.59
2019-03-31T00:54:33.353Z,58.31
2019-03-31T00:58:41.788Z,59.94
2019-03-31T01:02:51.097Z,58.69
2019-03-31T01:06:59.639Z,59.02
2019-03-31T01:11:19.801Z,58.55
2019-03-31T01:15:28.532Z,59.57
2019-03-31T01:19:36.897Z,59.51
2019-03-31T01:23:46.118Z,59.33
2019-03-31T01:27:55.080Z,59.13
2019-03-31T01:32:03.486Z,58.89
2019-03-31T01:36:12.404Z,58.96
2019-03-31T01:40:21.784Z,58.72
2019-03-31T01:44:30.097Z,58.96
2019-03-31T01:48:38.966Z,59.49
2019-03-31T01:52:47.783Z,60.03
2019-03-31T01:56:56.293Z,60.83
2019-03-31T02:01:06.111Z,60.49
2019-03-31T02:05:14.584Z,61.31
2019-03-31T02:09:22.916Z,61.31
2019-03-31T02:13:31.317Z,60.97
2019-03-31T02:17:39.877Z,61.48
2019-03-31T02:21:48.703Z,61.25
2019-03-31T02:25:57.545Z,61.12
2019-03-31T02:30:06.063Z,60.82
2019-03-31T02:34:14.583Z,60.86
2019-03-31T02:38:23.420Z,61.08
2019-03-31T02:42:32.072Z,61.19
2019-03-31T02:46:40.594Z,61.39
2019-03-31T02:50:50.705Z,61.78
2019-03-31T02:55:00.063Z,61.84
2019-03-31T02:59:09.159Z,61.74
2019-03-31T03:03:18.718Z,61.83
2019-03-31T03:07:29.443Z,62.77
2019-03-31T03:11:38.813Z,64.06
2019-03-31T03:16:16.005Z,64.89
2019-03-31T03:20:25.769Z,64.17
2019-03-31T03:24:35.626Z,63.96
2019-03-31T03:28:45.144Z,63.84
2019-03-31T03:33:13.233Z,64.39
2019-03-31T03:37:04.941Z,64.31
2019-03-31T03:41:13.233Z,64.30
2019-03-31T03:45:22.380Z,65.33
2019-03-31T03:49:31.571Z,65.02
2019-03-31T03:53:39.923Z,64.29
2019-03-31T03:57:48.831Z,63.82
2019-03-31T04:01:57.607Z,63.76
2019-03-31T04:06:05.902Z,63.65
2019-03-31T04:10:50.769Z,63.49
2019-03-31T04:14:59.654Z,63.46
2019-03-31T04:19:07.715Z,63.58
2019-03-31T04:23:16.585Z,63.81
2019-03-31T04:27:25.417Z,63.65
2019-03-31T04:31:33.744Z,63.85
2019-03-31T04:35:42.235Z,63.92
2019-03-31T04:39:50.585Z,63.25
2019-03-31T04:43:58.989Z,62.86
2019-03-31T04:48:07.826Z,62.46
2019-03-31T04:52:16.676Z,61.81
2019-03-31T04:56:25.090Z,61.29
2019-03-31T05:00:33.799Z,60.54
2019-03-31T05:04:42.224Z,59.40
2019-03-31T05:08:50.570Z,58.74
2019-03-31T05:12:59.306Z,58.75
2019-03-31T05:17:07.728Z,57.83
2019-03-31T05:21:17.370Z,58.93
2019-03-31T05:25:26.114Z,55.98
2019-03-31T05:29:35.868Z,54.04
2019-03-31T05:33:44.299Z,52.98
2019-03-31T05:37:52.923Z,55.91
2019-03-31T05:42:01.443Z,54.92
2019-03-31T05:46:10.301Z,54.69
2019-03-31T05:50:19.172Z,54.33
2019-03-31T05:54:27.670Z,51.53
2019-03-31T05:58:36.079Z,52.05
2019-03-31T06:02:44.386Z,51.63
2019-03-31T06:06:52.622Z,52.91
2019-03-31T06:11:01.135Z,51.89
2019-03-31T06:15:09.695Z,51.34
2019-03-31T06:19:18.909Z,50.84
2019-03-31T06:23:27.221Z,48.25
2019-03-31T06:27:35.764Z,49.83
2019-03-31T06:31:44.276Z,53.59
2019-03-31T06:35:52.927Z,47.29
2019-03-31T06:40:01.323Z,48.65
2019-03-31T06:44:10.781Z,48.30
2019-03-31T06:48:19.628Z,46.79
2019-03-31T06:52:27.837Z,46.08
2019-03-31T06:56:36.369Z,45.33
2019-03-31T07:00:44.693Z,44.98
2019-03-31T07:05:00.909Z,45.00
2019-03-31T07:09:04.788Z,44.91
2019-03-31T07:13:13.237Z,44.09
2019-03-31T07:17:22.085Z,41.92
2019-03-31T07:21:30.894Z,43.92
2019-03-31T07:25:39.303Z,41.61
2019-03-31T07:29:47.932Z,40.81
2019-03-31T07:33:56.890Z,40.75
2019-03-31T07:38:05.202Z,41.08
2019-03-31T07:42:14.171Z,38.40
2019-03-31T07:46:22.767Z,39.62
2019-03-31T07:50:32.126Z,39.37
2019-03-31T07:54:40.460Z,41.17
2019-03-31T07:58:48.739Z,39.67
2019-03-31T08:03:00.319Z,40.22
2019-03-31T08:07:07.954Z,41.06
2019-03-31T08:11:17.297Z,39.35
2019-03-31T08:15:25.735Z,38.79
2019-03-31T08:19:37.128Z,39.94
2019-03-31T08:23:45.401Z,40.77
2019-03-31T08:27:54.080Z,41.31
2019-03-31T08:32:03.660Z,41.04
2019-03-31T08:36:12.874Z,41.39
2019-03-31T08:40:21.520Z,41.89
2019-03-31T08:44:30.135Z,41.80
2019-03-31T08:48:38.359Z,42.69
2019-03-31T08:52:47.406Z,41.09
2019-03-31T08:56:55.726Z,40.25
2019-03-31T09:01:09.741Z,38.93
2019-03-31T09:05:18.611Z,39.19
2019-03-31T09:09:26.956Z,38.39
2019-03-31T09:13:35.955Z,37.62
2019-03-31T09:17:45.325Z,37.84
2019-03-31T09:21:53.646Z,37.46
2019-03-31T09:26:02.484Z,36.53
2019-03-31T09:30:12.259Z,37.56
2019-03-31T09:34:20.554Z,37.16
2019-03-31T09:38:28.872Z,36.67
2019-03-31T09:42:37.104Z,36.87
2019-03-31T09:46:46.011Z,35.88
2019-03-31T09:50:56.697Z,34.86
2019-03-31T09:55:05.327Z,34.86
2019-03-31T09:59:13.762Z,35.93
2019-03-31T10:03:23.019Z,36.27
2019-03-31T10:07:32.248Z,35.86
2019-03-31T10:11:40.775Z,35.47
2019-03-31T10:15:49.100Z,35.82
2019-03-31T10:19:57.740Z,35.82
2019-03-31T10:24:06.564Z,37.31
2019-03-31T10:28:14.790Z,37.16
2019-03-31T10:32:23.727Z,38.43
2019-03-31T10:36:43.746Z,36.34
2019-03-31T10:40:42.359Z,35.90
2019-03-31T10:44:51.074Z,35.87
2019-03-31T10:48:59.260Z,36.14
2019-03-31T10:53:07.641Z,36.76
2019-03-31T10:57:16.234Z,37.65
2019-03-31T11:01:24.528Z,37.65
2019-03-31T11:05:32.765Z,37.94
2019-03-31T11:09:41.172Z,37.51
2019-03-31T11:13:49.567Z,38.17
2019-03-31T11:17:58.348Z,38.92
2019-03-31T11:22:21.686Z,37.49
2019-03-31T11:26:29.953Z,38.17
2019-03-31T11:30:38.689Z,38.13
2019-03-31T11:34:47.931Z,37.74
2019-03-31T11:38:56.259Z,39.05
2019-03-31T11:43:05.061Z,36.46
2019-03-31T11:47:13.208Z,36.88
2019-03-31T11:51:21.520Z,36.23
2019-03-31T11:55:30.031Z,37.02
2019-03-31T11:59:38.352Z,38.03
2019-03-31T12:03:47.146Z,36.96
2019-03-31T12:07:56.542Z,36.97
2019-03-31T12:12:04.898Z,37.53
2019-03-31T12:16:13.394Z,38.81
2019-03-31T12:20:23.357Z,38.57
2019-03-31T12:24:31.959Z,39.33
2019-03-31T12:28:40.511Z,37.57
2019-03-31T12:32:48.938Z,37.48
2019-03-31T12:36:57.758Z,36.83
2019-03-31T12:41:05.989Z,36.81
2019-03-31T12:45:15.125Z,35.80
2019-03-31T12:49:23.650Z,36.92
2019-03-31T12:53:31.868Z,36.68
2019-03-31T12:57:40.613Z,37.43
2019-03-31T13:01:49.408Z,37.69
2019-03-31T13:05:57.679Z,36.74
2019-03-31T13:10:06.104Z,35.83
2019-03-31T13:14:14.838Z,35.93
2019-03-31T13:18:27.691Z,35.93
2019-03-31T13:22:34.127Z,35.18
2019-03-31T13:26:42.459Z,35.04
2019-03-31T13:30:50.662Z,35.92
2019-03-31T13:34:59.637Z,36.09
2019-03-31T13:39:09.145Z,38.22
2019-03-31T13:43:17.996Z,38.72
2019-03-31T13:47:27.430Z,39.03
2019-03-31T13:51:35.657Z,38.70
2019-03-31T13:55:44.806Z,39.34
2019-03-31T13:59:54.089Z,39.72
2019-03-31T14:04:03.563Z,39.45
2019-03-31T14:08:24.972Z,39.09
2019-03-31T14:12:22.790Z,39.62
2019-03-31T14:16:31.193Z,39.40
2019-03-31T14:20:40.376Z,39.85
2019-03-31T14:24:48.919Z,38.99
2019-03-31T14:28:57.143Z,38.73
2019-03-31T14:33:05.954Z,38.97
2019-03-31T14:37:14.152Z,40.07
2019-03-31T14:41:23.285Z,40.38
2019-03-31T14:45:38.305Z,40.31
2019-03-31T14:49:46.600Z,42.39
2019-03-31T14:53:55.630Z,43.63
2019-03-31T14:58:07.698Z,45.08
2019-03-31T15:02:14.530Z,46.04
2019-03-31T15:06:23.272Z,46.46
2019-03-31T15:10:32.123Z,47.17
2019-03-31T15:14:40.426Z,47.39
2019-03-31T15:18:49.355Z,48.13
2019-03-31T15:22:57.999Z,48.42
2019-03-31T15:27:06.317Z,49.24
2019-03-31T15:31:15.085Z,49.31
2019-03-31T15:35:23.267Z,49.70
2019-03-31T15:39:31.807Z,51.73
2019-03-31T15:43:40.260Z,51.41
2019-03-31T15:47:48.505Z,51.10
2019-03-31T15:51:57.482Z,50.87
2019-03-31T15:56:06.203Z,50.86
2019-03-31T16:00:15.130Z,51.04
2019-03-31T16:04:23.537Z,50.48
2019-03-31T16:08:31.566Z,50.72
2019-03-31T16:12:39.326Z,51.28
2019-03-31T16:16:47.686Z,51.10
2019-03-31T16:20:55.532Z,51.77
2019-03-31T16:25:05.463Z,51.20
2019-03-31T16:29:14.109Z,51.03
2019-03-31T16:33:21.815Z,51.51
2019-03-31T16:37:30.048Z,51.96
2019-03-31T16:41:38.882Z,51.81
2019-03-31T16:45:46.934Z,51.58
2019-03-31T16:49:55.183Z,51.42
2019-03-31T16:54:03.319Z,51.98
2019-03-31T16:58:10.889Z,52.91
2019-03-31T17:02:20.051Z,54.00
2019-03-31T17:06:28.200Z,54.12
2019-03-31T17:10:36.070Z,54.39
2019-03-31T17:14:44.773Z,54.73
2019-03-31T17:18:53.832Z,54.85
2019-03-31T17:23:02.513Z,54.44
2019-03-31T17:27:14.000Z,54.81
2019-03-31T17:31:20.613Z,55.03
2019-03-31T17:35:30.425Z,54.87
2019-03-31T17:39:38.640Z,54.71
2019-03-31T17:43:50.669Z,54.59
2019-03-31T17:48:00.693Z,55.65
2019-03-31T17:52:09.277Z,56.78
2019-03-31T17:56:17.053Z,56.34
2019-03-31T18:00:25.659Z,56.56
2019-03-31T18:04:33.292Z,55.71
2019-03-31T18:08:42.601Z,56.09
2019-03-31T18:12:50.959Z,55.12
2019-03-31T18:16:58.729Z,56.40
2019-03-31T18:21:09.872Z,57.24
2019-03-31T18:25:18.396Z,57.99
2019-03-31T18:29:27.101Z,59.31
2019-03-31T18:33:38.600Z,57.97
2019-03-31T18:37:46.539Z,59.83
2019-03-31T18:41:54.282Z,60.18
2019-03-31T18:46:02.465Z,59.81
2019-03-31T18:50:10.586Z,60.91
2019-03-31T18:54:52.086Z,60.58
2019-03-31T18:59:19.253Z,59.24
2019-03-31T19:03:47.446Z,59.29
2019-03-31T19:08:07.028Z,59.91
2019-03-31T19:12:34.764Z,60.16
2019-03-31T19:16:58.134Z,60.67
2019-03-31T19:21:35.581Z,60.38
2019-03-31T19:25:52.203Z,59.65
2019-03-31T19:30:22.131Z,59.07
2019-03-31T19:35:00.860Z,59.54
2019-03-31T19:39:26.988Z,60.38
2019-03-31T19:44:02.858Z,60.13
2019-03-31T19:48:29.473Z,60.07
2019-03-31T19:52:56.583Z,59.98
2019-03-31T19:57:29.119Z,59.19
2019-03-31T20:02:01.943Z,58.86
2019-03-31T20:06:34.120Z,58.12
2019-03-31T20:11:00.707Z,57.70
2019-03-31T20:15:33.951Z,56.85
2019-03-31T20:20:15.567Z,56.62
2019-03-31T20:24:42.384Z,55.02
2019-03-31T20:29:18.082Z,54.99
2019-03-31T20:33:47.959Z,56.26
2019-03-31T20:38:04.982Z,56.45
2019-03-31T20:42:23.457Z,57.37
2019-03-31T20:46:31.439Z,58.86
2019-03-31T20:50:39.035Z,58.05
2019-03-31T20:54:46.951Z,58.64
2019-03-31T20:58:54.688Z,58.44
2019-03-31T21:03:03.088Z,59.15
2019-03-31T21:07:11.308Z,59.34
2019-03-31T21:11:18.910Z,58.67
2019-03-31T21:15:27.224Z,58.64
2019-03-31T21:19:35.877Z,58.67
2019-03-31T21:23:43.566Z,58.46
2019-03-31T21:27:51.786Z,59.71
2019-03-31T21:31:59.705Z,59.86
2019-03-31T21:36:07.397Z,58.90
2019-03-31T21:40:15.542Z,59.08
2019-03-31T21:44:24.271Z,57.95
2019-03-31T21:48:31.875Z,58.42
2019-03-31T21:52:39.781Z,59.10
2019-03-31T21:56:47.580Z,58.80
2019-03-31T22:00:58.768Z,59.19
2019-03-31T22:05:08.134Z,59.78
2019-03-31T22:09:15.779Z,60.25
2019-03-31T22:13:23.825Z,60.32
2019-03-31T22:17:32.148Z,59.85
2019-03-31T22:21:39.791Z,59.88
2019-03-31T22:25:47.686Z,59.77
2019-03-31T22:29:55.615Z,59.51
2019-03-31T22:34:03.342Z,59.37
2019-03-31T22:38:11.929Z,59.26
2019-03-31T22:42:19.960Z,60.32
2019-03-31T22:46:27.852Z,61.08
2019-03-31T22:50:35.978Z,60.71
2019-03-31T22:54:43.799Z,61.98
2019-03-31T22:58:51.402Z,62.11
2019-03-31T23:02:59.706Z,61.52
2019-03-31T23:07:07.346Z,61.05
2019-03-31T23:11:15.260Z,60.31
2019-03-31T23:15:23.249Z,60.75
2019-03-31T23:19:31.056Z,60.59
2019-03-31T23:23:38.973Z,60.43
2019-03-31T23:27:46.893Z,59.66
2019-03-31T23:31:54.684Z,60.16
2019-03-31T23:36:02.916Z,59.85
2019-03-31T23:40:11.847Z,58.76
2019-03-31T23:44:19.540Z,59.52
2019-03-31T23:48:27.683Z,59.81
2019-03-31T23:52:36.390Z,60.05
2019-03-31T23:56:44.093Z,60.05
